createdAt,value
2017-07-21T00:01:51.093Z,9.90
2017-07-21T00:04:17.390Z,10.10
2017-07-21T00:06:43.667Z,10.93
2017-07-21T00:09:09.935Z,11.30
2017-07-21T00:11:36.205Z,11.10
2017-07-21T00:14:02.472Z,10.50
2017-07-21T00:16:28.749Z,10.60
2017-07-21T00:18:55.903Z,9.20
2017-07-21T00:21:22.933Z,9.73
2017-07-21T00:23:49.193Z,10.63
2017-07-21T00:26:15.489Z,12.27
2017-07-21T00:28:41.767Z,11.80
2017-07-21T00:31:08.048Z,11.47
2017-07-21T00:33:34.311Z,10.97
2017-07-21T00:36:00.572Z,12.10
2017-07-21T00:38:26.860Z,11.23
2017-07-21T00:40:53.874Z,12.20
2017-07-21T00:43:20.171Z,10.77
2017-07-21T00:45:46.477Z,11.50
2017-07-21T00:48:12.806Z,12.80
2017-07-21T00:50:39.073Z,12.67
2017-07-21T00:53:05.376Z,13.50
2017-07-21T00:55:31.644Z,13.53
2017-07-21T00:57:57.938Z,12.80
2017-07-21T01:00:24.230Z,13.30
2017-07-21T01:02:50.551Z,13.97
2017-07-21T01:05:18.671Z,13.10
2017-07-21T01:07:44.984Z,13.33
2017-07-21T01:10:11.319Z,14.17
2017-07-21T01:12:37.603Z,14.90
2017-07-21T01:15:03.886Z,13.23
2017-07-21T01:17:30.857Z,15.27
2017-07-21T01:19:57.241Z,15.57
2017-07-21T01:22:23.513Z,15.47
2017-07-21T01:24:50.617Z,16.37
2017-07-21T01:27:17.613Z,17.43
2017-07-21T01:29:43.896Z,17.13
2017-07-21T01:32:10.181Z,17.07
2017-07-21T01:34:36.456Z,18.10
2017-07-21T01:37:03.484Z,18.00
2017-07-21T01:39:30.935Z,19.70
2017-07-21T01:41:57.977Z,19.00
2017-07-21T01:44:25.004Z,20.07
2017-07-21T01:46:51.283Z,20.07
2017-07-21T01:49:17.575Z,20.87
2017-07-21T01:51:43.894Z,20.17
2017-07-21T01:54:10.155Z,19.80
2017-07-21T01:56:37.205Z,21.10
2017-07-21T01:59:04.227Z,22.10
2017-07-21T02:01:30.545Z,21.87
2017-07-21T02:03:56.872Z,21.17
2017-07-21T02:06:23.547Z,22.57
2017-07-21T02:08:49.889Z,22.93
2017-07-21T02:11:16.176Z,23.87
2017-07-21T02:13:42.433Z,21.43
2017-07-21T02:16:09.438Z,22.27
2017-07-21T02:18:36.522Z,22.60
2017-07-21T02:21:02.784Z,22.23
2017-07-21T02:23:29.063Z,22.03
2017-07-21T02:25:55.315Z,21.87
2017-07-21T02:28:21.574Z,21.03
2017-07-21T02:30:47.900Z,22.00
2017-07-21T02:33:14.203Z,24.17
2017-07-21T02:35:40.457Z,23.73
2017-07-21T02:38:06.711Z,23.50
2017-07-21T02:40:32.973Z,21.80
2017-07-21T02:42:59.245Z,23.33
2017-07-21T02:45:25.501Z,24.70
2017-07-21T02:47:51.773Z,23.80
2017-07-21T02:50:18.793Z,24.63
2017-07-21T02:52:45.049Z,22.97
2017-07-21T02:55:11.321Z,23.27
2017-07-21T02:57:37.604Z,23.50
2017-07-21T03:00:03.884Z,24.10
2017-07-21T03:02:30.185Z,23.00
2017-07-21T03:04:56.478Z,22.00
2017-07-21T03:07:22.764Z,21.93
2017-07-21T03:09:49.024Z,21.57
2017-07-21T03:12:15.271Z,20.30
2017-07-21T03:14:41.552Z,20.77
2017-07-21T03:17:07.824Z,20.50
2017-07-21T03:19:34.143Z,19.43
2017-07-21T03:22:00.436Z,19.73
2017-07-21T03:24:26.733Z,20.67
2017-07-21T03:26:53.057Z,21.73
2017-07-21T03:29:20.085Z,22.10
2017-07-21T03:31:46.362Z,20.97
2017-07-21T03:34:12.644Z,20.70
2017-07-21T03:36:39.007Z,21.50
2017-07-21T03:39:06.053Z,21.17
2017-07-21T03:41:33.086Z,19.80
2017-07-21T03:44:00.098Z,20.43
2017-07-21T03:46:26.393Z,20.30
2017-07-21T03:48:52.667Z,19.03
2017-07-21T03:51:18.952Z,19.57
2017-07-21T03:53:45.259Z,19.43
2017-07-21T03:56:11.681Z,20.80
2017-07-21T03:58:37.962Z,19.87
2017-07-21T04:01:04.267Z,19.80
2017-07-21T04:03:30.548Z,19.00
2017-07-21T04:05:56.861Z,20.60
2017-07-21T04:08:23.155Z,19.97
2017-07-21T04:10:49.429Z,21.00
2017-07-21T04:13:15.703Z,19.20
2017-07-21T04:15:41.977Z,20.10
2017-07-21T04:18:08.287Z,20.33
2017-07-21T04:20:34.566Z,18.57
2017-07-21T04:23:00.837Z,19.70
2017-07-21T04:25:27.133Z,18.13
2017-07-21T04:27:54.166Z,20.20
2017-07-21T04:30:20.468Z,19.17
2017-07-21T04:32:46.725Z,17.83
2017-07-21T04:35:13.019Z,18.00
2017-07-21T04:37:39.317Z,18.47
2017-07-21T04:40:05.589Z,16.90
2017-07-21T04:42:31.873Z,16.53
2017-07-21T04:44:58.153Z,15.50
2017-07-21T04:47:24.430Z,15.53
2017-07-21T04:49:50.725Z,14.80
2017-07-21T04:52:16.985Z,13.83
2017-07-21T04:54:44.029Z,14.43
2017-07-21T04:57:11.059Z,14.80
2017-07-21T04:59:38.099Z,13.70
2017-07-21T05:02:05.150Z,14.50
2017-07-21T05:04:31.445Z,13.83
2017-07-21T05:06:57.746Z,12.53
2017-07-21T05:09:24.022Z,11.50
2017-07-21T05:11:50.358Z,11.07
2017-07-21T05:14:16.645Z,10.40
2017-07-21T05:16:42.932Z,8.60
2017-07-21T05:19:10.279Z,8.53
2017-07-21T05:21:36.573Z,5.70
2017-07-21T05:24:02.847Z,6.17
2017-07-21T05:26:29.912Z,6.17
2017-07-21T05:28:56.198Z,5.80
2017-07-21T05:31:22.479Z,4.90
2017-07-21T05:33:49.489Z,4.70
2017-07-21T05:36:15.767Z,4.90
2017-07-21T05:38:42.034Z,4.80
2017-07-21T05:41:08.328Z,4.53
2017-07-21T05:43:34.625Z,4.50
2017-07-21T05:46:00.952Z,4.37
2017-07-21T05:48:27.291Z,4.53
2017-07-21T05:50:53.562Z,4.17
2017-07-21T05:53:19.851Z,3.87
2017-07-21T05:55:46.867Z,3.63
2017-07-21T05:58:13.153Z,3.00
2017-07-21T06:00:39.424Z,3.10
2017-07-21T06:03:06.483Z,3.20
2017-07-21T06:05:33.549Z,3.20
2017-07-21T06:08:00.598Z,3.40
2017-07-21T06:10:27.591Z,3.10
2017-07-21T06:12:53.877Z,2.77
2017-07-21T06:15:20.904Z,2.60
2017-07-21T06:17:47.184Z,2.27
2017-07-21T06:20:13.479Z,3.27
2017-07-21T06:22:39.772Z,2.73
2017-07-21T06:25:06.078Z,2.80
2017-07-21T06:27:32.363Z,2.50
2017-07-21T06:29:59.402Z,2.83
2017-07-21T06:32:25.679Z,2.33
2017-07-21T06:34:52.789Z,2.50
2017-07-21T06:37:19.061Z,2.53
2017-07-21T06:39:45.395Z,2.20
2017-07-21T06:42:11.668Z,2.20
2017-07-21T06:44:37.940Z,2.00
2017-07-21T06:47:04.250Z,2.20
2017-07-21T06:49:30.528Z,2.40
2017-07-21T06:51:56.848Z,2.30
2017-07-21T06:54:23.144Z,2.20
2017-07-21T06:56:49.421Z,2.50
2017-07-21T06:59:15.713Z,2.33
2017-07-21T07:01:42.015Z,2.47
2017-07-21T07:04:08.302Z,1.93
2017-07-21T07:06:34.581Z,2.30
2017-07-21T07:09:00.839Z,2.20
2017-07-21T07:11:27.141Z,2.37
2017-07-21T07:13:53.422Z,2.17
2017-07-21T07:16:19.715Z,2.20
2017-07-21T07:18:45.989Z,2.53
2017-07-21T07:21:12.275Z,2.60
2017-07-21T07:23:38.544Z,2.20
2017-07-21T07:26:04.813Z,2.10
2017-07-21T07:28:31.849Z,2.57
2017-07-21T07:30:58.139Z,2.03
2017-07-21T07:33:24.432Z,2.00
2017-07-21T07:35:50.709Z,2.30
2017-07-21T07:38:16.975Z,2.40
2017-07-21T07:40:43.245Z,2.50
2017-07-21T07:43:09.534Z,2.33
2017-07-21T07:45:35.854Z,2.20
2017-07-21T07:48:02.876Z,1.97
2017-07-21T07:50:29.149Z,1.90
2017-07-21T07:52:55.441Z,2.67
2017-07-21T07:55:22.487Z,2.90
2017-07-21T07:57:49.527Z,2.90
2017-07-21T08:00:15.825Z,2.87
2017-07-21T08:02:42.116Z,2.10
2017-07-21T08:05:08.418Z,2.53
2017-07-21T08:07:34.707Z,2.60
2017-07-21T08:10:01.070Z,2.40
2017-07-21T08:12:27.363Z,2.53
2017-07-21T08:14:53.656Z,2.10
2017-07-21T08:17:20.712Z,2.00
2017-07-21T08:19:47.746Z,2.47
2017-07-21T08:22:14.788Z,2.37
2017-07-21T08:24:41.087Z,2.43
2017-07-21T08:27:07.388Z,2.07
2017-07-21T08:29:33.732Z,2.60
2017-07-21T08:32:00.068Z,2.23
2017-07-21T08:34:27.148Z,2.30
2017-07-21T08:36:53.420Z,2.17
2017-07-21T08:39:19.708Z,2.67
2017-07-21T08:41:45.976Z,2.03
2017-07-21T08:44:12.348Z,2.50
2017-07-21T08:46:38.626Z,2.60
2017-07-21T08:49:04.928Z,2.50
2017-07-21T08:51:31.214Z,2.53
2017-07-21T08:53:57.487Z,2.70
2017-07-21T08:56:23.820Z,2.70
2017-07-21T08:58:50.906Z,2.43
2017-07-21T09:01:17.197Z,2.40
2017-07-21T09:03:43.484Z,2.40
2017-07-21T09:06:11.266Z,2.60
2017-07-21T09:08:37.555Z,2.77
2017-07-21T09:11:03.842Z,2.83
2017-07-21T09:13:30.133Z,3.80
2017-07-21T09:15:56.412Z,4.20
2017-07-21T09:18:23.323Z,3.40
2017-07-21T09:20:49.628Z,2.80
2017-07-21T09:23:15.920Z,3.10
2017-07-21T09:25:42.315Z,3.43
2017-07-21T09:28:08.793Z,3.77
2017-07-21T09:30:35.140Z,3.87
2017-07-21T09:33:01.426Z,3.27
2017-07-21T09:35:27.724Z,2.60
2017-07-21T09:37:54.140Z,3.13
2017-07-21T09:40:20.444Z,3.30
2017-07-21T09:42:47.473Z,2.93
2017-07-21T09:45:21.670Z,3.00
2017-07-21T09:47:48.193Z,3.53
2017-07-21T09:50:14.485Z,3.90
2017-07-21T09:52:40.780Z,3.13
2017-07-21T09:55:07.072Z,3.77
2017-07-21T09:57:33.391Z,3.90
2017-07-21T09:59:59.701Z,4.00
2017-07-21T10:02:25.967Z,3.97
2017-07-21T10:04:52.201Z,3.70
2017-07-21T10:07:18.528Z,3.53
2017-07-21T10:09:44.803Z,3.77
2017-07-21T10:12:11.112Z,3.20
2017-07-21T10:14:38.152Z,3.63
2017-07-21T10:17:04.450Z,3.67
2017-07-21T10:19:30.753Z,3.50
2017-07-21T10:21:57.089Z,3.87
2017-07-21T10:24:23.342Z,3.10
2017-07-21T10:26:49.630Z,3.53
2017-07-21T10:29:16.714Z,3.40
2017-07-21T10:31:43.035Z,3.00
2017-07-21T10:34:09.404Z,3.47
2017-07-21T10:36:35.737Z,3.90
2017-07-21T10:39:02.053Z,3.90
2017-07-21T10:41:28.340Z,3.70
2017-07-21T10:43:54.625Z,4.13
2017-07-21T10:46:20.921Z,4.00
2017-07-21T10:48:47.194Z,3.40
2017-07-21T10:51:13.493Z,3.43
2017-07-21T10:53:39.788Z,2.67
2017-07-21T10:56:06.072Z,3.03
2017-07-21T10:58:32.368Z,3.50
2017-07-21T11:00:58.644Z,3.50
2017-07-21T11:03:25.675Z,3.80
2017-07-21T11:05:51.976Z,3.10
2017-07-21T11:08:18.252Z,3.53
2017-07-21T11:10:44.593Z,3.40
2017-07-21T11:13:11.633Z,2.87
2017-07-21T11:15:38.769Z,2.90
2017-07-21T11:18:05.046Z,2.80
2017-07-21T11:20:31.399Z,3.00
2017-07-21T11:22:57.705Z,2.47
2017-07-21T11:25:23.985Z,2.63
2017-07-21T11:27:50.260Z,2.57
2017-07-21T11:30:16.557Z,2.80
2017-07-21T11:32:42.828Z,3.10
2017-07-21T11:35:09.097Z,2.50
2017-07-21T11:37:35.382Z,2.10
2017-07-21T11:40:01.667Z,2.90
2017-07-21T11:42:27.967Z,1.97
2017-07-21T11:44:54.264Z,2.50
2017-07-21T11:47:20.558Z,2.60
2017-07-21T11:49:46.813Z,2.70
2017-07-21T11:52:13.113Z,2.17
2017-07-21T11:54:39.379Z,2.33
2017-07-21T11:57:05.672Z,2.40
2017-07-21T11:59:31.963Z,2.37
2017-07-21T12:01:58.221Z,2.47
2017-07-21T12:04:24.534Z,1.60
2017-07-21T12:06:50.819Z,1.93
2017-07-21T12:09:17.148Z,2.37
2017-07-21T12:11:45.147Z,1.77
2017-07-21T12:14:13.064Z,2.17
2017-07-21T12:16:41.009Z,2.30
2017-07-21T12:19:09.697Z,1.60
2017-07-21T12:21:37.340Z,2.30
2017-07-21T12:24:05.521Z,2.30
2017-07-21T12:26:33.536Z,2.10
2017-07-21T12:29:00.114Z,2.13
2017-07-21T12:31:26.467Z,1.90
2017-07-21T12:33:52.835Z,1.93
2017-07-21T12:36:20.567Z,2.10
2017-07-21T12:38:49.188Z,2.33
2017-07-21T12:41:17.619Z,2.47
2017-07-21T12:43:45.923Z,1.93
2017-07-21T12:46:14.356Z,2.20
2017-07-21T12:48:43.400Z,2.43
2017-07-21T12:51:11.147Z,2.40
2017-07-21T12:53:37.426Z,1.93
2017-07-21T12:56:03.691Z,2.00
2017-07-21T12:58:30.004Z,2.00
2017-07-21T13:00:56.331Z,1.70
2017-07-21T13:03:22.610Z,1.63
2017-07-21T13:05:48.897Z,1.90
2017-07-21T13:08:15.212Z,2.07
2017-07-21T13:10:41.486Z,2.40
2017-07-21T13:13:07.817Z,1.70
2017-07-21T13:15:34.148Z,1.97
2017-07-21T13:18:00.445Z,1.80
2017-07-21T13:20:26.789Z,2.00
2017-07-21T13:22:53.089Z,2.03
2017-07-21T13:25:19.360Z,1.97
2017-07-21T13:27:45.678Z,1.70
2017-07-21T13:30:11.980Z,1.77
2017-07-21T13:32:38.303Z,1.73
2017-07-21T13:35:04.600Z,1.40
2017-07-21T13:37:31.618Z,1.40
2017-07-21T13:39:57.932Z,1.97
2017-07-21T13:42:24.236Z,1.40
2017-07-21T13:44:50.503Z,2.40
2017-07-21T13:47:16.800Z,1.90
2017-07-21T13:49:43.073Z,1.70
2017-07-21T13:52:09.403Z,1.43
2017-07-21T13:54:35.712Z,1.97
2017-07-21T13:57:01.988Z,1.90
2017-07-21T13:59:28.271Z,1.63
2017-07-21T14:01:54.553Z,1.63
2017-07-21T14:04:21.582Z,1.67
2017-07-21T14:06:47.878Z,2.13
2017-07-21T14:09:14.134Z,1.90
2017-07-21T14:11:40.463Z,2.13
2017-07-21T14:14:06.754Z,1.80
2017-07-21T14:16:33.052Z,2.27
2017-07-21T14:19:00.240Z,2.20
2017-07-21T14:21:26.519Z,1.60
2017-07-21T14:23:52.810Z,1.30
2017-07-21T14:26:19.088Z,1.87
2017-07-21T14:28:45.371Z,1.47
2017-07-21T14:31:11.662Z,2.10
2017-07-21T14:33:37.941Z,1.70
2017-07-21T14:36:04.215Z,1.80
2017-07-21T14:38:30.497Z,1.63
2017-07-21T14:40:56.778Z,2.10
2017-07-21T14:43:23.071Z,2.03
2017-07-21T14:45:49.337Z,1.90
2017-07-21T14:48:15.641Z,1.70
2017-07-21T14:50:42.679Z,2.07
2017-07-21T14:53:08.982Z,2.30
2017-07-21T14:55:35.253Z,1.80
2017-07-21T14:58:02.294Z,1.50
2017-07-21T15:00:29.328Z,1.70
2017-07-21T15:02:55.660Z,1.60
2017-07-21T15:05:21.934Z,1.53
2017-07-21T15:07:48.241Z,1.73
2017-07-21T15:10:14.549Z,1.70
2017-07-21T15:12:40.824Z,2.13
2017-07-21T15:15:07.120Z,1.83
2017-07-21T15:17:33.411Z,1.77
2017-07-21T15:19:59.724Z,1.60
2017-07-21T15:22:26.012Z,1.57
2017-07-21T15:24:52.315Z,1.93
2017-07-21T15:27:18.593Z,1.80
2017-07-21T15:29:44.948Z,1.53
2017-07-21T15:32:11.233Z,2.10
2017-07-21T15:34:38.259Z,1.33
2017-07-21T15:37:04.614Z,1.30
2017-07-21T15:39:30.889Z,1.53
2017-07-21T15:41:57.176Z,1.50
2017-07-21T15:44:23.479Z,1.77
2017-07-21T15:46:49.772Z,1.40
2017-07-21T15:49:16.053Z,1.60
2017-07-21T15:51:43.126Z,1.70
2017-07-21T15:54:09.406Z,1.40
2017-07-21T15:56:35.711Z,1.53
2017-07-21T15:59:02.015Z,1.77
2017-07-21T16:01:28.329Z,1.27
2017-07-21T16:03:54.632Z,1.27
2017-07-21T16:06:20.921Z,1.40
2017-07-21T16:08:47.266Z,1.60
2017-07-21T16:11:13.567Z,1.37
2017-07-21T16:13:39.908Z,1.30
2017-07-21T16:16:06.180Z,1.20
2017-07-21T16:18:32.512Z,1.30
2017-07-21T16:20:59.549Z,1.80
2017-07-21T16:23:25.864Z,1.57
2017-07-21T16:25:52.159Z,1.40
2017-07-21T16:28:18.438Z,1.80
2017-07-21T16:30:44.723Z,2.10
2017-07-21T16:33:11.081Z,1.47
2017-07-21T16:35:37.391Z,1.60
2017-07-21T16:38:03.677Z,1.90
2017-07-21T16:40:30.712Z,1.40
2017-07-21T16:42:57.020Z,1.70
2017-07-21T16:45:23.332Z,1.37
2017-07-21T16:47:49.636Z,1.30
2017-07-21T16:50:15.915Z,1.80
2017-07-21T16:52:42.207Z,1.40
2017-07-21T16:55:08.556Z,1.10
2017-07-21T16:57:34.926Z,1.20
2017-07-21T17:00:01.215Z,1.20
2017-07-21T17:02:27.511Z,1.60
2017-07-21T17:04:53.784Z,1.37
2017-07-21T17:07:20.094Z,1.30
2017-07-21T17:09:46.369Z,1.27
2017-07-21T17:12:12.660Z,1.60
2017-07-21T17:14:38.936Z,1.30
2017-07-21T17:17:06.027Z,1.20
2017-07-21T17:19:32.312Z,1.50
2017-07-21T17:21:59.359Z,1.23
2017-07-21T17:24:26.446Z,1.40
2017-07-21T17:26:52.803Z,1.77
2017-07-21T17:29:19.860Z,1.60
2017-07-21T17:31:46.815Z,1.40
2017-07-21T17:34:13.102Z,1.40
2017-07-21T17:36:39.375Z,1.97
2017-07-21T17:39:05.668Z,1.63
2017-07-21T17:41:31.980Z,1.70
2017-07-21T17:43:59.214Z,1.60
2017-07-21T17:46:26.262Z,1.60
2017-07-21T17:48:52.564Z,1.63
2017-07-21T17:51:18.827Z,1.57
2017-07-21T17:53:45.094Z,1.43
2017-07-21T17:56:11.441Z,1.53
2017-07-21T17:58:38.542Z,1.80
2017-07-21T18:01:04.886Z,1.20
2017-07-21T18:03:31.208Z,1.30
2017-07-21T18:05:57.495Z,1.30
2017-07-21T18:08:23.799Z,1.23
2017-07-21T18:10:50.156Z,1.60
2017-07-21T18:13:16.491Z,1.53
2017-07-21T18:15:43.544Z,1.33
2017-07-21T18:18:09.859Z,1.60
2017-07-21T18:20:36.152Z,1.30
2017-07-21T18:23:02.411Z,1.40
2017-07-21T18:25:29.339Z,1.57
2017-07-21T18:27:55.631Z,1.70
2017-07-21T18:30:21.918Z,1.30
2017-07-21T18:32:48.214Z,1.33
2017-07-21T18:35:14.560Z,1.63
2017-07-21T18:37:41.410Z,1.57
2017-07-21T18:40:08.489Z,2.07
2017-07-21T18:42:34.830Z,2.10
2017-07-21T18:45:01.341Z,1.77
2017-07-21T18:47:28.616Z,1.87
2017-07-21T18:49:54.908Z,1.67
2017-07-21T18:52:21.191Z,1.90
2017-07-21T18:54:47.499Z,1.97
2017-07-21T18:57:13.789Z,1.93
2017-07-21T18:59:40.877Z,1.80
2017-07-21T19:02:07.153Z,1.50
2017-07-21T19:04:33.500Z,1.80
2017-07-21T19:06:59.846Z,1.40
2017-07-21T19:09:26.265Z,1.80
2017-07-21T19:11:52.568Z,1.80
2017-07-21T19:14:18.900Z,2.20
2017-07-21T19:16:45.197Z,1.93
2017-07-21T19:19:11.520Z,2.20
2017-07-21T19:21:37.811Z,2.20
2017-07-21T19:24:04.182Z,2.27
2017-07-21T19:26:30.466Z,2.43
2017-07-21T19:28:56.775Z,2.40
2017-07-21T19:31:23.050Z,2.30
2017-07-21T19:33:49.337Z,2.50
2017-07-21T19:36:16.526Z,2.43
2017-07-21T19:38:42.871Z,2.37
2017-07-21T19:41:09.183Z,2.07
2017-07-21T19:43:35.383Z,1.97
2017-07-21T19:46:01.698Z,2.30
2017-07-21T19:48:27.973Z,1.90
2017-07-21T19:50:54.247Z,1.63
2017-07-21T19:53:20.586Z,2.03
2017-07-21T19:55:46.867Z,2.07
2017-07-21T19:58:13.138Z,2.00
2017-07-21T20:00:39.422Z,2.10
2017-07-21T20:03:05.722Z,2.03
2017-07-21T20:05:32.028Z,1.90
2017-07-21T20:08:05.428Z,2.17
2017-07-21T20:10:31.762Z,1.93
2017-07-21T20:12:58.035Z,2.43
2017-07-21T20:15:24.295Z,2.50
2017-07-21T20:17:50.642Z,4.10
2017-07-21T20:20:16.900Z,4.23
2017-07-21T20:22:43.171Z,5.10
2017-07-21T20:25:09.441Z,4.80
2017-07-21T20:27:35.720Z,3.30
2017-07-21T20:30:02.695Z,4.57
2017-07-21T20:32:28.984Z,3.00
2017-07-21T20:34:55.243Z,2.20
2017-07-21T20:37:21.486Z,2.43
2017-07-21T20:39:47.744Z,4.53
2017-07-21T20:42:13.999Z,5.30
2017-07-21T20:44:40.291Z,2.90
2017-07-21T20:47:06.556Z,2.40
2017-07-21T20:49:32.861Z,2.40
2017-07-21T20:51:59.133Z,2.90
2017-07-21T20:54:26.142Z,2.80
2017-07-21T20:56:52.416Z,2.50
2017-07-21T20:59:19.464Z,2.80
2017-07-21T21:01:46.537Z,2.67
2017-07-21T21:04:12.806Z,2.10
2017-07-21T21:06:39.076Z,2.10
2017-07-21T21:09:06.108Z,2.37
2017-07-21T21:11:33.135Z,2.40
2017-07-21T21:13:59.427Z,2.73
2017-07-21T21:16:25.674Z,3.20
2017-07-21T21:18:51.937Z,4.80
2017-07-21T21:21:18.218Z,4.37
2017-07-21T21:23:44.475Z,3.63
2017-07-21T21:26:10.778Z,2.80
2017-07-21T21:28:37.054Z,3.00
2017-07-21T21:31:03.363Z,2.50
2017-07-21T21:33:30.530Z,2.37
2017-07-21T21:35:56.793Z,2.80
2017-07-21T21:38:23.079Z,7.07
2017-07-21T21:40:49.387Z,4.00
2017-07-21T21:43:15.673Z,3.10
2017-07-21T21:45:41.965Z,2.87
2017-07-21T21:48:08.686Z,2.13
2017-07-21T21:50:34.952Z,2.60
2017-07-21T21:53:01.265Z,2.10
2017-07-21T21:55:27.554Z,2.30
2017-07-21T21:57:53.845Z,2.53
2017-07-21T22:00:20.945Z,2.77
2017-07-21T22:02:47.308Z,3.00
2017-07-21T22:05:14.635Z,3.60
2017-07-21T22:07:48.136Z,4.50
2017-07-21T22:10:14.525Z,6.57
2017-07-21T22:12:40.810Z,6.10
2017-07-21T22:15:19.596Z,4.30
2017-07-21T22:17:45.889Z,2.80
2017-07-21T22:20:12.195Z,2.20
2017-07-21T22:22:38.478Z,2.50
2017-07-21T22:25:04.792Z,2.10
2017-07-21T22:27:31.119Z,2.07
2017-07-21T22:29:57.441Z,2.53
2017-07-21T22:32:24.448Z,2.40
2017-07-21T22:34:50.752Z,2.90
2017-07-21T22:37:17.051Z,2.40
2017-07-21T22:39:43.368Z,2.30
2017-07-21T22:42:10.827Z,2.70
2017-07-21T22:44:37.118Z,2.20
2017-07-21T22:47:03.381Z,2.40
2017-07-21T22:49:30.175Z,2.27
2017-07-21T22:51:56.469Z,2.37
2017-07-21T22:54:22.745Z,1.80
2017-07-21T22:56:49.013Z,2.57
2017-07-21T22:59:16.022Z,2.50
2017-07-21T23:01:42.306Z,1.90
2017-07-21T23:04:08.585Z,2.57
2017-07-21T23:06:34.868Z,2.10
2017-07-21T23:09:01.149Z,2.30
2017-07-21T23:11:27.456Z,2.10
2017-07-21T23:13:53.730Z,2.40
2017-07-21T23:16:19.993Z,2.70
2017-07-21T23:18:46.265Z,2.50
2017-07-21T23:21:12.524Z,2.33
2017-07-21T23:23:39.530Z,2.23
2017-07-21T23:26:05.800Z,2.40
2017-07-21T23:28:32.068Z,2.37
2017-07-21T23:30:58.331Z,2.47
2017-07-21T23:33:24.625Z,2.33
2017-07-21T23:35:50.880Z,2.33
2017-07-21T23:38:17.181Z,2.20
2017-07-21T23:40:43.441Z,2.50
2017-07-21T23:43:09.709Z,2.10
2017-07-21T23:45:36.712Z,2.03
2017-07-21T23:48:02.993Z,2.70
2017-07-21T23:50:29.263Z,2.80
2017-07-21T23:52:55.509Z,2.40
2017-07-21T23:55:21.780Z,2.53
2017-07-21T23:57:48.028Z,2.23
